sensor_id;sensor_type;location;lat;lon;timestamp;P1;durP1;ratioP1;P2;durP2;ratioP2
17372;SDS011;8803;48.116;11.590;2023-09-19T00:02:04;1.33;;;1.10;;
17372;SDS011;8803;48.116;11.590;2023-09-19T00:04:17;2.33;;;1.03;;
17372;SDS011;8803;48.116;11.590;2023-09-19T00:06:23;1.30;;;1.13;;
17372;SDS011;8803;48.116;11.590;2023-09-19T00:08:27;1.20;;;0.90;;
17372;SDS011;8803;48.116;11.590;2023-09-19T00:10:32;2.00;;;1.47;;
17372;SDS011;8803;48.116;11.590;2023-09-19T00:12:37;2.07;;;1.10;;
17372;SDS011;8803;48.116;11.590;2023-09-19T00:14:54;2.00;;;1.10;;
17372;SDS011;8803;48.116;11.590;2023-09-19T00:16:59;2.17;;;1.37;;
17372;SDS011;8803;48.116;11.590;2023-09-19T00:19:05;2.33;;;1.20;;
17372;SDS011;8803;48.116;11.590;2023-09-19T00:21:10;1.43;;;1.20;;
17372;SDS011;8803;48.116;11.590;2023-09-19T00:23:15;1.67;;;1.10;;
17372;SDS011;8803;48.116;11.590;2023-09-19T00:25:20;1.40;;;1.30;;
17372;SDS011;8803;48.116;11.590;2023-09-19T00:27:25;1.20;;;1.00;;
17372;SDS011;8803;48.116;11.590;2023-09-19T00:29:29;1.20;;;1.10;;
17372;SDS011;8803;48.116;11.590;2023-09-19T00:31:34;2.17;;;1.33;;
17372;SDS011;8803;48.116;11.590;2023-09-19T00:33:39;1.37;;;1.20;;
17372;SDS011;8803;48.116;11.590;2023-09-19T00:35:47;1.43;;;1.20;;
17372;SDS011;8803;48.116;11.590;2023-09-19T00:37:52;3.10;;;1.10;;
17372;SDS011;8803;48.116;11.590;2023-09-19T00:39:57;2.90;;;1.30;;
17372;SDS011;8803;48.116;11.590;2023-09-19T00:42:01;3.20;;;1.43;;
17372;SDS011;8803;48.116;11.590;2023-09-19T00:44:08;1.10;;;1.00;;
17372;SDS011;8803;48.116;11.590;2023-09-19T00:46:13;1.83;;;1.00;;
17372;SDS011;8803;48.116;11.590;2023-09-19T00:48:28;1.93;;;1.13;;
17372;SDS011;8803;48.116;11.590;2023-09-19T00:50:33;1.33;;;1.13;;
17372;SDS011;8803;48.116;11.590;2023-09-19T00:52:38;1.13;;;1.03;;
17372;SDS011;8803;48.116;11.590;2023-09-19T00:54:51;1.20;;;1.03;;
17372;SDS011;8803;48.116;11.590;2023-09-19T00:56:56;1.10;;;1.00;;
17372;SDS011;8803;48.116;11.590;2023-09-19T01:01:55;2.80;;;1.47;;
17372;SDS011;8803;48.116;11.590;2023-09-19T01:04:01;2.17;;;1.10;;
17372;SDS011;8803;48.116;11.590;2023-09-19T01:06:06;1.20;;;1.10;;
17372;SDS011;8803;48.116;11.590;2023-09-19T01:08:10;2.80;;;1.00;;
17372;SDS011;8803;48.116;11.590;2023-09-19T01:10:15;1.37;;;1.13;;
17372;SDS011;8803;48.116;11.590;2023-09-19T01:12:24;1.57;;;1.10;;
17372;SDS011;8803;48.116;11.590;2023-09-19T01:14:34;1.57;;;1.43;;
17372;SDS011;8803;48.116;11.590;2023-09-19T01:16:44;1.30;;;0.90;;
17372;SDS011;8803;48.116;11.590;2023-09-19T01:19:01;3.73;;;1.17;;
17372;SDS011;8803;48.116;11.590;2023-09-19T01:21:14;1.53;;;1.00;;
17372;SDS011;8803;48.116;11.590;2023-09-19T01:23:21;1.60;;;1.10;;
17372;SDS011;8803;48.116;11.590;2023-09-19T01:28:31;1.70;;;1.30;;
17372;SDS011;8803;48.116;11.590;2023-09-19T01:30:40;1.40;;;1.20;;
17372;SDS011;8803;48.116;11.590;2023-09-19T01:32:54;1.73;;;1.07;;
17372;SDS011;8803;48.116;11.590;2023-09-19T01:35:00;1.17;;;1.00;;
17372;SDS011;8803;48.116;11.590;2023-09-19T01:37:06;1.30;;;1.20;;
17372;SDS011;8803;48.116;11.590;2023-09-19T01:39:11;1.30;;;1.10;;
17372;SDS011;8803;48.116;11.590;2023-09-19T01:41:17;1.93;;;1.47;;
17372;SDS011;8803;48.116;11.590;2023-09-19T01:43:32;2.07;;;1.20;;
17372;SDS011;8803;48.116;11.590;2023-09-19T01:45:41;1.20;;;1.10;;
17372;SDS011;8803;48.116;11.590;2023-09-19T01:47:55;1.93;;;1.20;;
17372;SDS011;8803;48.116;11.590;2023-09-19T01:50:05;3.40;;;1.20;;
17372;SDS011;8803;48.116;11.590;2023-09-19T01:52:19;1.90;;;1.20;;
17372;SDS011;8803;48.116;11.590;2023-09-19T01:54:40;2.73;;;1.17;;
17372;SDS011;8803;48.116;11.590;2023-09-19T01:56:45;1.80;;;1.30;;
17372;SDS011;8803;48.116;11.590;2023-09-19T01:58:51;1.53;;;1.10;;
17372;SDS011;8803;48.116;11.590;2023-09-19T02:01:05;1.53;;;1.17;;
17372;SDS011;8803;48.116;11.590;2023-09-19T02:03:12;3.07;;;1.20;;
17372;SDS011;8803;48.116;11.590;2023-09-19T02:05:22;1.10;;;1.00;;
17372;SDS011;8803;48.116;11.590;2023-09-19T02:07:29;1.20;;;1.10;;
17372;SDS011;8803;48.116;11.590;2023-09-19T02:09:33;1.53;;;1.10;;
17372;SDS011;8803;48.116;11.590;2023-09-19T02:11:40;1.43;;;1.10;;
17372;SDS011;8803;48.116;11.590;2023-09-19T02:13:44;1.60;;;1.40;;
17372;SDS011;8803;48.116;11.590;2023-09-19T02:15:48;1.63;;;1.30;;
17372;SDS011;8803;48.116;11.590;2023-09-19T02:17:53;1.23;;;1.00;;
17372;SDS011;8803;48.116;11.590;2023-09-19T02:19:58;1.87;;;1.10;;
17372;SDS011;8803;48.116;11.590;2023-09-19T02:22:04;1.30;;;1.10;;
17372;SDS011;8803;48.116;11.590;2023-09-19T02:24:16;1.40;;;1.20;;
17372;SDS011;8803;48.116;11.590;2023-09-19T02:26:21;1.10;;;1.00;;
17372;SDS011;8803;48.116;11.590;2023-09-19T02:28:34;1.30;;;1.20;;
17372;SDS011;8803;48.116;11.590;2023-09-19T02:30:39;1.40;;;1.20;;
17372;SDS011;8803;48.116;11.590;2023-09-19T02:32:43;2.50;;;1.20;;
17372;SDS011;8803;48.116;11.590;2023-09-19T02:34:48;1.40;;;1.10;;
17372;SDS011;8803;48.116;11.590;2023-09-19T02:37:01;1.27;;;1.17;;
17372;SDS011;8803;48.116;11.590;2023-09-19T02:39:08;1.87;;;0.97;;
17372;SDS011;8803;48.116;11.590;2023-09-19T02:41:13;2.10;;;1.17;;
17372;SDS011;8803;48.116;11.590;2023-09-19T02:43:26;2.73;;;1.40;;
17372;SDS011;8803;48.116;11.590;2023-09-19T02:45:31;1.50;;;1.40;;
17372;SDS011;8803;48.116;11.590;2023-09-19T02:47:36;2.20;;;1.30;;
17372;SDS011;8803;48.116;11.590;2023-09-19T02:49:49;3.00;;;1.20;;
17372;SDS011;8803;48.116;11.590;2023-09-19T02:51:54;2.13;;;1.20;;
17372;SDS011;8803;48.116;11.590;2023-09-19T02:54:00;1.57;;;1.20;;
17372;SDS011;8803;48.116;11.590;2023-09-19T02:56:05;1.90;;;1.30;;
17372;SDS011;8803;48.116;11.590;2023-09-19T02:58:11;1.60;;;1.20;;
17372;SDS011;8803;48.116;11.590;2023-09-19T03:02:28;1.67;;;1.30;;
17372;SDS011;8803;48.116;11.590;2023-09-19T03:04:34;2.57;;;1.00;;
17372;SDS011;8803;48.116;11.590;2023-09-19T03:06:39;2.03;;;1.30;;
17372;SDS011;8803;48.116;11.590;2023-09-19T03:08:46;2.07;;;1.10;;
17372;SDS011;8803;48.116;11.590;2023-09-19T03:10:52;1.57;;;1.30;;
17372;SDS011;8803;48.116;11.590;2023-09-19T03:12:57;1.83;;;1.27;;
17372;SDS011;8803;48.116;11.590;2023-09-19T03:15:02;1.67;;;1.10;;
17372;SDS011;8803;48.116;11.590;2023-09-19T03:17:09;1.77;;;1.30;;
17372;SDS011;8803;48.116;11.590;2023-09-19T03:19:16;1.53;;;1.10;;
17372;SDS011;8803;48.116;11.590;2023-09-19T03:21:22;1.40;;;1.17;;
17372;SDS011;8803;48.116;11.590;2023-09-19T03:23:35;3.00;;;1.30;;
17372;SDS011;8803;48.116;11.590;2023-09-19T03:25:40;1.60;;;1.17;;
17372;SDS011;8803;48.116;11.590;2023-09-19T03:27:45;1.50;;;1.40;;
17372;SDS011;8803;48.116;11.590;2023-09-19T03:29:50;1.30;;;1.10;;
17372;SDS011;8803;48.116;11.590;2023-09-19T03:31:55;1.20;;;1.10;;
17372;SDS011;8803;48.116;11.590;2023-09-19T03:34:00;1.10;;;1.00;;
17372;SDS011;8803;48.116;11.590;2023-09-19T03:36:06;2.17;;;1.40;;
17372;SDS011;8803;48.116;11.590;2023-09-19T03:38:11;2.20;;;1.40;;
17372;SDS011;8803;48.116;11.590;2023-09-19T03:40:16;1.80;;;1.10;;
17372;SDS011;8803;48.116;11.590;2023-09-19T03:42:22;1.83;;;1.17;;
17372;SDS011;8803;48.116;11.590;2023-09-19T03:44:35;1.20;;;1.00;;
17372;SDS011;8803;48.116;11.590;2023-09-19T03:46:39;1.93;;;1.20;;
17372;SDS011;8803;48.116;11.590;2023-09-19T03:48:44;2.17;;;1.50;;
17372;SDS011;8803;48.116;11.590;2023-09-19T03:50:57;1.23;;;1.10;;
17372;SDS011;8803;48.116;11.590;2023-09-19T03:53:02;1.20;;;1.10;;
17372;SDS011;8803;48.116;11.590;2023-09-19T03:55:09;1.60;;;1.20;;
17372;SDS011;8803;48.116;11.590;2023-09-19T03:57:22;1.70;;;1.60;;
17372;SDS011;8803;48.116;11.590;2023-09-19T03:59:26;1.50;;;1.40;;
17372;SDS011;8803;48.116;11.590;2023-09-19T04:01:31;1.90;;;1.30;;
17372;SDS011;8803;48.116;11.590;2023-09-19T04:03:44;1.50;;;1.30;;
17372;SDS011;8803;48.116;11.590;2023-09-19T04:05:49;1.40;;;1.20;;
17372;SDS011;8803;48.116;11.590;2023-09-19T04:07:53;3.33;;;1.30;;
17372;SDS011;8803;48.116;11.590;2023-09-19T04:12:09;1.67;;;1.40;;
17372;SDS011;8803;48.116;11.590;2023-09-19T04:14:14;1.93;;;1.60;;
17372;SDS011;8803;48.116;11.590;2023-09-19T04:16:18;2.57;;;1.50;;
17372;SDS011;8803;48.116;11.590;2023-09-19T04:18:23;1.63;;;1.33;;
17372;SDS011;8803;48.116;11.590;2023-09-19T04:20:27;1.57;;;1.30;;
17372;SDS011;8803;48.116;11.590;2023-09-19T04:22:33;3.50;;;1.70;;
17372;SDS011;8803;48.116;11.590;2023-09-19T04:24:37;2.47;;;1.20;;
17372;SDS011;8803;48.116;11.590;2023-09-19T04:26:42;2.87;;;1.53;;
17372;SDS011;8803;48.116;11.590;2023-09-19T04:28:46;2.20;;;1.30;;
17372;SDS011;8803;48.116;11.590;2023-09-19T04:30:51;1.50;;;1.07;;
17372;SDS011;8803;48.116;11.590;2023-09-19T04:33:05;2.20;;;1.30;;
17372;SDS011;8803;48.116;11.590;2023-09-19T04:35:09;1.37;;;1.27;;
17372;SDS011;8803;48.116;11.590;2023-09-19T04:37:16;1.40;;;1.10;;
17372;SDS011;8803;48.116;11.590;2023-09-19T04:39:23;2.20;;;1.30;;
17372;SDS011;8803;48.116;11.590;2023-09-19T04:41:28;1.40;;;1.30;;
17372;SDS011;8803;48.116;11.590;2023-09-19T04:43:32;1.87;;;1.20;;
17372;SDS011;8803;48.116;11.590;2023-09-19T04:45:38;1.80;;;1.07;;
17372;SDS011;8803;48.116;11.590;2023-09-19T04:47:42;2.03;;;1.27;;
17372;SDS011;8803;48.116;11.590;2023-09-19T04:49:47;1.60;;;1.40;;
17372;SDS011;8803;48.116;11.590;2023-09-19T04:51:52;1.70;;;1.20;;
17372;SDS011;8803;48.116;11.590;2023-09-19T04:53:56;1.20;;;1.10;;
17372;SDS011;8803;48.116;11.590;2023-09-19T04:56:01;1.63;;;1.20;;
17372;SDS011;8803;48.116;11.590;2023-09-19T04:58:07;2.07;;;1.30;;
17372;SDS011;8803;48.116;11.590;2023-09-19T05:00:14;2.57;;;1.20;;
17372;SDS011;8803;48.116;11.590;2023-09-19T05:02:29;2.23;;;1.30;;
17372;SDS011;8803;48.116;11.590;2023-09-19T05:04:36;1.70;;;1.43;;
17372;SDS011;8803;48.116;11.590;2023-09-19T05:06:40;1.30;;;1.20;;
17372;SDS011;8803;48.116;11.590;2023-09-19T05:08:45;1.43;;;1.30;;
17372;SDS011;8803;48.116;11.590;2023-09-19T05:10:51;2.33;;;1.50;;
17372;SDS011;8803;48.116;11.590;2023-09-19T05:12:57;1.97;;;1.20;;
17372;SDS011;8803;48.116;11.590;2023-09-19T05:15:02;1.40;;;1.27;;
17372;SDS011;8803;48.116;11.590;2023-09-19T05:17:09;1.83;;;1.43;;
17372;SDS011;8803;48.116;11.590;2023-09-19T05:19:14;2.03;;;1.20;;
17372;SDS011;8803;48.116;11.590;2023-09-19T05:21:18;1.63;;;1.20;;
17372;SDS011;8803;48.116;11.590;2023-09-19T05:23:31;1.70;;;1.30;;
17372;SDS011;8803;48.116;11.590;2023-09-19T05:25:36;1.40;;;1.23;;
17372;SDS011;8803;48.116;11.590;2023-09-19T05:29:54;1.50;;;1.20;;
17372;SDS011;8803;48.116;11.590;2023-09-19T05:31:58;2.20;;;1.20;;
17372;SDS011;8803;48.116;11.590;2023-09-19T05:34:05;1.00;;;1.00;;
17372;SDS011;8803;48.116;11.590;2023-09-19T05:36:18;1.63;;;1.20;;
17372;SDS011;8803;48.116;11.590;2023-09-19T05:38:22;1.87;;;1.40;;
17372;SDS011;8803;48.116;11.590;2023-09-19T05:40:28;1.27;;;1.17;;
17372;SDS011;8803;48.116;11.590;2023-09-19T05:42:32;1.43;;;1.30;;
17372;SDS011;8803;48.116;11.590;2023-09-19T05:44:37;1.57;;;1.40;;
17372;SDS011;8803;48.116;11.590;2023-09-19T05:46:41;2.60;;;1.30;;
17372;SDS011;8803;48.116;11.590;2023-09-19T05:48:46;1.40;;;1.30;;
17372;SDS011;8803;48.116;11.590;2023-09-19T05:50:51;2.67;;;1.37;;
17372;SDS011;8803;48.116;11.590;2023-09-19T05:52:56;2.60;;;1.30;;
17372;SDS011;8803;48.116;11.590;2023-09-19T05:55:00;1.37;;;1.03;;
17372;SDS011;8803;48.116;11.590;2023-09-19T05:57:06;1.63;;;1.20;;
17372;SDS011;8803;48.116;11.590;2023-09-19T05:59:19;1.10;;;1.00;;
17372;SDS011;8803;48.116;11.590;2023-09-19T06:01:24;1.70;;;1.30;;
17372;SDS011;8803;48.116;11.590;2023-09-19T06:03:29;1.77;;;1.43;;
17372;SDS011;8803;48.116;11.590;2023-09-19T06:05:42;1.90;;;1.30;;
17372;SDS011;8803;48.116;11.590;2023-09-19T06:07:47;1.50;;;1.20;;
17372;SDS011;8803;48.116;11.590;2023-09-19T06:09:53;1.57;;;1.17;;
17372;SDS011;8803;48.116;11.590;2023-09-19T06:11:58;2.03;;;1.20;;
17372;SDS011;8803;48.116;11.590;2023-09-19T06:14:11;1.27;;;1.00;;
17372;SDS011;8803;48.116;11.590;2023-09-19T06:16:18;1.17;;;1.00;;
17372;SDS011;8803;48.116;11.590;2023-09-19T06:18:23;1.53;;;1.00;;
17372;SDS011;8803;48.116;11.590;2023-09-19T06:20:28;1.30;;;0.90;;
17372;SDS011;8803;48.116;11.590;2023-09-19T06:22:34;1.60;;;1.00;;
17372;SDS011;8803;48.116;11.590;2023-09-19T06:24:39;1.27;;;1.07;;
17372;SDS011;8803;48.116;11.590;2023-09-19T06:26:44;1.37;;;0.93;;
17372;SDS011;8803;48.116;11.590;2023-09-19T06:28:49;1.13;;;1.03;;
17372;SDS011;8803;48.116;11.590;2023-09-19T06:30:53;1.57;;;1.00;;
17372;SDS011;8803;48.116;11.590;2023-09-19T06:32:58;1.40;;;0.90;;
17372;SDS011;8803;48.116;11.590;2023-09-19T06:35:06;1.17;;;1.00;;
17372;SDS011;8803;48.116;11.590;2023-09-19T06:37:12;1.60;;;1.22;;
17372;SDS011;8803;48.116;11.590;2023-09-19T06:39:25;1.27;;;0.90;;
17372;SDS011;8803;48.116;11.590;2023-09-19T06:41:31;1.25;;;1.00;;
17372;SDS011;8803;48.116;11.590;2023-09-19T06:43:36;2.00;;;1.20;;
17372;SDS011;8803;48.116;11.590;2023-09-19T06:45:49;1.10;;;1.00;;
17372;SDS011;8803;48.116;11.590;2023-09-19T06:47:55;1.15;;;0.85;;
17372;SDS011;8803;48.116;11.590;2023-09-19T06:50:01;0.90;;;0.80;;
17372;SDS011;8803;48.116;11.590;2023-09-19T06:52:15;1.30;;;1.07;;
17372;SDS011;8803;48.116;11.590;2023-09-19T06:54:21;1.47;;;0.95;;
17372;SDS011;8803;48.116;11.590;2023-09-19T06:56:26;2.05;;;1.27;;
17372;SDS011;8803;48.116;11.590;2023-09-19T06:58:30;1.87;;;1.00;;
17372;SDS011;8803;48.116;11.590;2023-09-19T07:00:36;1.73;;;1.20;;
17372;SDS011;8803;48.116;11.590;2023-09-19T07:02:40;1.00;;;0.90;;
17372;SDS011;8803;48.116;11.590;2023-09-19T07:04:53;2.70;;;0.90;;
17372;SDS011;8803;48.116;11.590;2023-09-19T07:06:58;1.33;;;1.20;;
17372;SDS011;8803;48.116;11.590;2023-09-19T07:09:02;1.65;;;1.00;;
17372;SDS011;8803;48.116;11.590;2023-09-19T07:11:15;1.37;;;1.07;;
17372;SDS011;8803;48.116;11.590;2023-09-19T07:13:21;1.62;;;1.15;;
17372;SDS011;8803;48.116;11.590;2023-09-19T07:15:27;1.90;;;1.20;;
17372;SDS011;8803;48.116;11.590;2023-09-19T07:17:34;1.17;;;0.80;;
17372;SDS011;8803;48.116;11.590;2023-09-19T07:19:39;1.97;;;1.07;;
17372;SDS011;8803;48.116;11.590;2023-09-19T07:21:45;1.10;;;0.88;;
17372;SDS011;8803;48.116;11.590;2023-09-19T07:23:51;2.33;;;1.30;;
17372;SDS011;8803;48.116;11.590;2023-09-19T07:25:57;1.10;;;1.00;;
17372;SDS011;8803;48.116;11.590;2023-09-19T07:28:02;2.30;;;0.85;;
17372;SDS011;8803;48.116;11.590;2023-09-19T07:30:10;1.52;;;0.80;;
17372;SDS011;8803;48.116;11.590;2023-09-19T07:32:16;0.90;;;0.75;;
17372;SDS011;8803;48.116;11.590;2023-09-19T07:34:21;0.70;;;0.70;;
17372;SDS011;8803;48.116;11.590;2023-09-19T07:36:25;1.32;;;0.93;;
17372;SDS011;8803;48.116;11.590;2023-09-19T07:38:30;0.90;;;0.80;;
17372;SDS011;8803;48.116;11.590;2023-09-19T07:40:36;0.93;;;0.83;;
17372;SDS011;8803;48.116;11.590;2023-09-19T07:42:41;1.00;;;0.90;;
17372;SDS011;8803;48.116;11.590;2023-09-19T07:44:48;1.37;;;0.77;;
17372;SDS011;8803;48.116;11.590;2023-09-19T07:46:54;1.77;;;0.90;;
17372;SDS011;8803;48.116;11.590;2023-09-19T07:48:59;1.10;;;0.80;;
17372;SDS011;8803;48.116;11.590;2023-09-19T07:51:03;1.92;;;0.90;;
17372;SDS011;8803;48.116;11.590;2023-09-19T07:53:09;1.52;;;1.15;;
17372;SDS011;8803;48.116;11.590;2023-09-19T07:55:22;1.60;;;1.20;;
17372;SDS011;8803;48.116;11.590;2023-09-19T07:57:27;1.32;;;1.17;;
17372;SDS011;8803;48.116;11.590;2023-09-19T07:59:31;1.30;;;1.12;;
17372;SDS011;8803;48.116;11.590;2023-09-19T08:01:47;1.35;;;1.00;;
17372;SDS011;8803;48.116;11.590;2023-09-19T08:03:51;2.72;;;1.40;;
17372;SDS011;8803;48.116;11.590;2023-09-19T08:05:56;1.32;;;1.05;;
17372;SDS011;8803;48.116;11.590;2023-09-19T08:08:02;2.25;;;1.05;;
17372;SDS011;8803;48.116;11.590;2023-09-19T08:10:09;1.87;;;1.15;;
17372;SDS011;8803;48.116;11.590;2023-09-19T08:12:22;1.30;;;1.00;;
17372;SDS011;8803;48.116;11.590;2023-09-19T08:14:27;1.42;;;0.90;;
17372;SDS011;8803;48.116;11.590;2023-09-19T08:16:31;1.82;;;1.17;;
17372;SDS011;8803;48.116;11.590;2023-09-19T08:20:49;1.25;;;0.90;;
17372;SDS011;8803;48.116;11.590;2023-09-19T08:22:55;2.25;;;1.00;;
17372;SDS011;8803;48.116;11.590;2023-09-19T08:25:00;1.10;;;1.00;;
17372;SDS011;8803;48.116;11.590;2023-09-19T08:27:05;2.10;;;1.10;;
17372;SDS011;8803;48.116;11.590;2023-09-19T08:29:11;1.05;;;0.90;;
17372;SDS011;8803;48.116;11.590;2023-09-19T08:31:16;1.25;;;0.90;;
17372;SDS011;8803;48.116;11.590;2023-09-19T08:33:20;1.22;;;1.05;;
17372;SDS011;8803;48.116;11.590;2023-09-19T08:35:25;1.32;;;1.00;;
17372;SDS011;8803;48.116;11.590;2023-09-19T08:37:30;1.52;;;1.02;;
17372;SDS011;8803;48.116;11.590;2023-09-19T08:39:35;1.57;;;1.05;;
17372;SDS011;8803;48.116;11.590;2023-09-19T08:41:40;2.12;;;1.10;;
17372;SDS011;8803;48.116;11.590;2023-09-19T08:43:53;1.25;;;1.10;;
17372;SDS011;8803;48.116;11.590;2023-09-19T08:46:08;2.05;;;1.00;;
17372;SDS011;8803;48.116;11.590;2023-09-19T08:48:20;2.08;;;1.00;;
17372;SDS011;8803;48.116;11.590;2023-09-19T08:50:27;2.60;;;1.10;;
17372;SDS011;8803;48.116;11.590;2023-09-19T08:52:42;1.17;;;0.88;;
17372;SDS011;8803;48.116;11.590;2023-09-19T08:54:46;1.15;;;0.90;;
17372;SDS011;8803;48.116;11.590;2023-09-19T08:56:54;2.05;;;0.88;;
17372;SDS011;8803;48.116;11.590;2023-09-19T08:59:03;1.67;;;0.95;;
17372;SDS011;8803;48.116;11.590;2023-09-19T09:03:24;1.12;;;0.90;;
17372;SDS011;8803;48.116;11.590;2023-09-19T09:05:30;0.85;;;0.82;;
17372;SDS011;8803;48.116;11.590;2023-09-19T09:07:38;2.40;;;0.78;;
17372;SDS011;8803;48.116;11.590;2023-09-19T09:09:51;0.70;;;0.70;;
17372;SDS011;8803;48.116;11.590;2023-09-19T09:11:55;1.00;;;0.90;;
17372;SDS011;8803;48.116;11.590;2023-09-19T09:14:03;0.70;;;0.70;;
17372;SDS011;8803;48.116;11.590;2023-09-19T09:16:10;1.65;;;1.00;;
17372;SDS011;8803;48.116;11.590;2023-09-19T09:18:15;1.27;;;0.90;;
17372;SDS011;8803;48.116;11.590;2023-09-19T09:20:20;1.67;;;0.93;;
17372;SDS011;8803;48.116;11.590;2023-09-19T09:22:33;2.22;;;1.20;;
17372;SDS011;8803;48.116;11.590;2023-09-19T09:24:50;1.75;;;0.95;;
17372;SDS011;8803;48.116;11.590;2023-09-19T09:26:56;1.67;;;1.02;;
17372;SDS011;8803;48.116;11.590;2023-09-19T09:29:01;1.87;;;0.80;;
17372;SDS011;8803;48.116;11.590;2023-09-19T09:31:06;1.70;;;0.80;;
17372;SDS011;8803;48.116;11.590;2023-09-19T09:33:14;1.12;;;1.00;;
17372;SDS011;8803;48.116;11.590;2023-09-19T09:35:20;1.82;;;1.25;;
17372;SDS011;8803;48.116;11.590;2023-09-19T09:37:24;1.52;;;1.17;;
17372;SDS011;8803;48.116;11.590;2023-09-19T09:39:31;1.92;;;1.20;;
17372;SDS011;8803;48.116;11.590;2023-09-19T09:41:36;1.77;;;1.62;;
17372;SDS011;8803;48.116;11.590;2023-09-19T09:43:42;1.90;;;1.70;;
17372;SDS011;8803;48.116;11.590;2023-09-19T09:45:48;1.75;;;1.45;;
17372;SDS011;8803;48.116;11.590;2023-09-19T09:48:04;2.08;;;1.45;;
17372;SDS011;8803;48.116;11.590;2023-09-19T09:50:11;1.22;;;1.00;;
17372;SDS011;8803;48.116;11.590;2023-09-19T09:52:24;1.15;;;1.05;;
17372;SDS011;8803;48.116;11.590;2023-09-19T09:54:29;1.32;;;0.90;;
17372;SDS011;8803;48.116;11.590;2023-09-19T09:57:01;1.10;;;1.00;;
17372;SDS011;8803;48.116;11.590;2023-09-19T09:59:15;1.52;;;1.20;;
17372;SDS011;8803;48.116;11.590;2023-09-19T10:01:22;1.45;;;1.05;;
17372;SDS011;8803;48.116;11.590;2023-09-19T10:03:31;1.27;;;1.10;;
17372;SDS011;8803;48.116;11.590;2023-09-19T10:05:39;2.02;;;1.15;;
17372;SDS011;8803;48.116;11.590;2023-09-19T10:07:56;1.77;;;1.30;;
17372;SDS011;8803;48.116;11.590;2023-09-19T10:10:05;1.70;;;1.10;;
17372;SDS011;8803;48.116;11.590;2023-09-19T10:12:16;1.80;;;1.00;;
17372;SDS011;8803;48.116;11.590;2023-09-19T10:14:24;1.42;;;1.12;;
17372;SDS011;8803;48.116;11.590;2023-09-19T10:16:32;1.82;;;1.35;;
17372;SDS011;8803;48.116;11.590;2023-09-19T10:18:37;1.52;;;1.25;;
17372;SDS011;8803;48.116;11.590;2023-09-19T10:20:45;1.17;;;1.07;;
17372;SDS011;8803;48.116;11.590;2023-09-19T10:22:52;1.52;;;1.20;;
17372;SDS011;8803;48.116;11.590;2023-09-19T10:24:59;1.40;;;1.10;;
17372;SDS011;8803;48.116;11.590;2023-09-19T10:27:06;2.05;;;1.05;;
17372;SDS011;8803;48.116;11.590;2023-09-19T10:29:11;1.20;;;1.10;;
17372;SDS011;8803;48.116;11.590;2023-09-19T10:31:19;1.10;;;1.00;;
17372;SDS011;8803;48.116;11.590;2023-09-19T10:33:26;1.27;;;1.17;;
17372;SDS011;8803;48.116;11.590;2023-09-19T10:35:32;1.72;;;1.20;;
17372;SDS011;8803;48.116;11.590;2023-09-19T10:37:41;1.45;;;1.22;;
17372;SDS011;8803;48.116;11.590;2023-09-19T10:39:48;3.33;;;1.35;;
17372;SDS011;8803;48.116;11.590;2023-09-19T10:41:55;1.32;;;1.20;;
17372;SDS011;8803;48.116;11.590;2023-09-19T10:44:04;2.87;;;1.17;;
17372;SDS011;8803;48.116;11.590;2023-09-19T10:46:17;2.02;;;1.20;;
17372;SDS011;8803;48.116;11.590;2023-09-19T10:48:22;1.20;;;1.10;;
17372;SDS011;8803;48.116;11.590;2023-09-19T10:50:28;1.15;;;1.05;;
17372;SDS011;8803;48.116;11.590;2023-09-19T10:52:37;1.62;;;1.20;;
17372;SDS011;8803;48.116;11.590;2023-09-19T10:54:51;1.72;;;1.10;;
17372;SDS011;8803;48.116;11.590;2023-09-19T10:56:59;1.70;;;1.10;;
17372;SDS011;8803;48.116;11.590;2023-09-19T10:59:07;1.90;;;1.10;;
17372;SDS011;8803;48.116;11.590;2023-09-19T11:01:16;1.55;;;0.90;;
17372;SDS011;8803;48.116;11.590;2023-09-19T11:03:29;1.30;;;1.15;;
17372;SDS011;8803;48.116;11.590;2023-09-19T11:05:34;2.65;;;1.52;;
17372;SDS011;8803;48.116;11.590;2023-09-19T11:07:57;1.57;;;1.35;;
17372;SDS011;8803;48.116;11.590;2023-09-19T11:10:05;1.55;;;1.35;;
17372;SDS011;8803;48.116;11.590;2023-09-19T11:12:13;4.12;;;2.08;;
17372;SDS011;8803;48.116;11.590;2023-09-19T11:14:41;3.45;;;1.80;;
17372;SDS011;8803;48.116;11.590;2023-09-19T11:22:19;2.45;;;1.75;;
17372;SDS011;8803;48.116;11.590;2023-09-19T11:24:29;2.40;;;2.02;;
17372;SDS011;8803;48.116;11.590;2023-09-19T11:26:40;2.37;;;2.17;;
17372;SDS011;8803;48.116;11.590;2023-09-19T11:28:47;1.45;;;1.30;;
17372;SDS011;8803;48.116;11.590;2023-09-19T11:30:54;1.67;;;1.10;;
17372;SDS011;8803;48.116;11.590;2023-09-19T11:33:18;3.95;;;1.42;;
17372;SDS011;8803;48.116;11.590;2023-09-19T11:35:25;2.00;;;1.10;;
17372;SDS011;8803;48.116;11.590;2023-09-19T11:40:17;1.77;;;0.93;;
17372;SDS011;8803;48.116;11.590;2023-09-19T11:42:42;1.27;;;1.00;;
17372;SDS011;8803;48.116;11.590;2023-09-19T11:44:49;1.67;;;0.98;;
17372;SDS011;8803;48.116;11.590;2023-09-19T11:47:02;1.20;;;1.00;;
17372;SDS011;8803;48.116;11.590;2023-09-19T11:49:08;1.50;;;1.00;;
17372;SDS011;8803;48.116;11.590;2023-09-19T11:51:15;1.45;;;0.90;;
17372;SDS011;8803;48.116;11.590;2023-09-19T11:53:23;1.47;;;1.00;;
17372;SDS011;8803;48.116;11.590;2023-09-19T11:55:29;1.90;;;1.57;;
17372;SDS011;8803;48.116;11.590;2023-09-19T11:57:35;3.30;;;2.20;;
17372;SDS011;8803;48.116;11.590;2023-09-19T11:59:42;3.10;;;1.70;;
17372;SDS011;8803;48.116;11.590;2023-09-19T12:01:51;4.20;;;1.60;;
17372;SDS011;8803;48.116;11.590;2023-09-19T12:03:59;2.10;;;1.90;;
17372;SDS011;8803;48.116;11.590;2023-09-19T12:06:10;1.80;;;1.40;;
17372;SDS011;8803;48.116;11.590;2023-09-19T12:08:16;1.60;;;1.45;;
17372;SDS011;8803;48.116;11.590;2023-09-19T12:10:33;1.50;;;1.40;;
17372;SDS011;8803;48.116;11.590;2023-09-19T12:12:40;1.50;;;1.20;;
17372;SDS011;8803;48.116;11.590;2023-09-19T12:14:50;1.30;;;1.20;;
17372;SDS011;8803;48.116;11.590;2023-09-19T12:16:56;1.52;;;1.40;;
17372;SDS011;8803;48.116;11.590;2023-09-19T12:19:18;2.02;;;1.20;;
17372;SDS011;8803;48.116;11.590;2023-09-19T12:21:25;1.32;;;1.00;;
17372;SDS011;8803;48.116;11.590;2023-09-19T12:23:32;1.05;;;0.98;;
17372;SDS011;8803;48.116;11.590;2023-09-19T12:25:42;1.47;;;1.05;;
17372;SDS011;8803;48.116;11.590;2023-09-19T12:27:48;1.55;;;1.10;;
17372;SDS011;8803;48.116;11.590;2023-09-19T12:29:54;1.20;;;1.02;;
17372;SDS011;8803;48.116;11.590;2023-09-19T12:32:07;2.30;;;1.45;;
17372;SDS011;8803;48.116;11.590;2023-09-19T12:34:12;1.85;;;1.30;;
17372;SDS011;8803;48.116;11.590;2023-09-19T12:36:28;0.80;;;0.80;;
17372;SDS011;8803;48.116;11.590;2023-09-19T12:38:33;2.33;;;1.07;;
17372;SDS011;8803;48.116;11.590;2023-09-19T12:40:38;2.33;;;1.00;;
17372;SDS011;8803;48.116;11.590;2023-09-19T12:42:43;1.25;;;1.15;;
17372;SDS011;8803;48.116;11.590;2023-09-19T12:44:50;0.80;;;0.80;;
17372;SDS011;8803;48.116;11.590;2023-09-19T12:46:57;1.02;;;0.93;;
17372;SDS011;8803;48.116;11.590;2023-09-19T12:49:17;1.00;;;0.90;;
17372;SDS011;8803;48.116;11.590;2023-09-19T12:51:22;1.22;;;0.98;;
17372;SDS011;8803;48.116;11.590;2023-09-19T12:53:30;0.80;;;0.80;;
17372;SDS011;8803;48.116;11.590;2023-09-19T12:55:36;0.88;;;0.82;;
17372;SDS011;8803;48.116;11.590;2023-09-19T12:57:43;1.00;;;0.70;;
17372;SDS011;8803;48.116;11.590;2023-09-19T12:59:56;0.90;;;0.70;;
17372;SDS011;8803;48.116;11.590;2023-09-19T13:02:04;1.82;;;1.00;;
17372;SDS011;8803;48.116;11.590;2023-09-19T13:04:12;1.00;;;0.90;;
17372;SDS011;8803;48.116;11.590;2023-09-19T13:06:34;1.27;;;0.80;;
17372;SDS011;8803;48.116;11.590;2023-09-19T13:08:46;1.42;;;1.00;;
17372;SDS011;8803;48.116;11.590;2023-09-19T13:11:07;1.00;;;0.88;;
17372;SDS011;8803;48.116;11.590;2023-09-19T13:13:23;2.15;;;0.90;;
17372;SDS011;8803;48.116;11.590;2023-09-19T13:15:52;1.25;;;0.82;;